地図

経路データ

SID SEASON NUMBER BASIN SUBBASIN NAME ISO_TIME NATURE LAT LON WMO_WIND WMO_PRES WMO_AGENCY TRACK_TYPE DIST2LAND LANDFALL IFLAG USA_AGENCY USA_ATCF_ID USA_LAT USA_LON USA_RECORD USA_STATUS USA_WIND USA_PRES USA_SSHS USA_R34_NE USA_R34_SE USA_R34_SW USA_R34_NW USA_R50_NE USA_R50_SE USA_R50_SW USA_R50_NW USA_R64_NE USA_R64_SE USA_R64_SW USA_R64_NW USA_POCI USA_ROCI USA_RMW USA_EYE TOKYO_LAT TOKYO_LON TOKYO_GRADE TOKYO_WIND TOKYO_PRES TOKYO_R50_DIR TOKYO_R50_LONG TOKYO_R50_SHORT TOKYO_R30_DIR TOKYO_R30_LONG TOKYO_R30_SHORT TOKYO_LAND CMA_LAT CMA_LON CMA_CAT CMA_WIND CMA_PRES HKO_LAT HKO_LON HKO_CAT HKO_WIND HKO_PRES NEWDELHI_LAT NEWDELHI_LON NEWDELHI_GRADE NEWDELHI_WIND NEWDELHI_PRES NEWDELHI_CI NEWDELHI_DP NEWDELHI_POCI REUNION_LAT REUNION_LON REUNION_TYPE REUNION_WIND REUNION_PRES REUNION_TNUM REUNION_CI REUNION_RMW REUNION_R34_NE REUNION_R34_SE REUNION_R34_SW REUNION_R34_NW REUNION_R50_NE REUNION_R50_SE REUNION_R50_SW REUNION_R50_NW REUNION_R64_NE REUNION_R64_SE REUNION_R64_SW REUNION_R64_NW BOM_LAT BOM_LON BOM_TYPE BOM_WIND BOM_PRES BOM_TNUM BOM_CI BOM_RMW BOM_R34_NE BOM_R34_SE BOM_R34_SW BOM_R34_NW BOM_R50_NE BOM_R50_SE BOM_R50_SW BOM_R50_NW BOM_R64_NE BOM_R64_SE BOM_R64_SW BOM_R64_NW BOM_ROCI BOM_POCI BOM_EYE BOM_POS_METHOD BOM_PRES_METHOD NADI_LAT NADI_LON NADI_CAT NADI_WIND NADI_PRES WELLINGTON_LAT WELLINGTON_LON WELLINGTON_WIND WELLINGTON_PRES DS824_LAT DS824_LON DS824_STAGE DS824_WIND DS824_PRES TD9636_LAT TD9636_LON TD9636_STAGE TD9636_WIND TD9636_PRES TD9635_LAT TD9635_LON TD9635_WIND TD9635_PRES TD9635_ROCI NEUMANN_LAT NEUMANN_LON NEUMANN_CLASS NEUMANN_WIND NEUMANN_PRES MLC_LAT MLC_LON MLC_CLASS MLC_WIND MLC_PRES USA_GUST BOM_GUST BOM_GUST_PER REUNION_GUST REUNION_GUST_PER USA_SEAHGT USA_SEARAD_NE USA_SEARAD_SE USA_SEARAD_SW USA_SEARAD_NW STORM_SPEED STORM_DIR
1974137N11069 1974 38 NI AS NOT_NAMED 1974-05-17 00:00:00 TS 11.4000 69.1000 main 639 639 O________OO___ jtwc_io IO021974 11.4000 69.1000 -1 11.4000 69.1000 TC 25 11.4000 69.1000 1 9 282
1974137N11069 1974 38 NI AS NOT_NAMED 1974-05-17 03:00:00 TS 11.4950 68.6472 main 689 689 P________PP___ IO021974 11.4852 68.6425 -1 11.4852 68.6425 TC 25 11.5147 68.6565 1 9 284
1974137N11069 1974 38 NI AS NOT_NAMED 1974-05-17 06:00:00 TS 11.6144 68.2067 main 730 730 O________OP___ jtwc_io IO021974 11.6000 68.2000 -1 11.6000 68.2000 TC 25 11.6432 68.2202 1 9 289
1974137N11069 1974 38 NI AS NOT_NAMED 1974-05-17 09:00:00 TS 11.7800 67.7896 main 756 756 P________PP___ IO021974 11.7699 67.7850 -1 11.7699 67.7850 TC 25 11.8002 67.7989 1 9 296
1974137N11069 1974 38 NI AS NOT_NAMED 1974-05-17 12:00:00 TS 12.0000 67.4000 main 783 783 O________OO___ jtwc_io IO021974 12.0000 67.4000 -1 12.0000 67.4000 TC 25 12.0000 67.4000 1 9 304
1974137N11069 1974 38 NI AS NOT_NAMED 1974-05-17 15:00:00 TS 12.2741 67.0422 main 808 808 P________PP___ IO021974 12.2849 67.0499 -1 12.2849 67.0499 TC 25 12.2524 67.0267 1 9 310
1974137N11069 1974 38 NI AS NOT_NAMED 1974-05-17 18:00:00 TS 12.5823 66.6882 main 826 826 O________OP___ jtwc_io IO021974 12.6000 66.7000 -1 12.6000 66.7000 TC 25 12.5469 66.6646 1 9 310
1974137N11069 1974 38 NI AS NOT_NAMED 1974-05-17 21:00:00 TS 12.8843 66.3083 main 853 853 P________PP___ IO021974 12.8924 66.3149 -1 12.8924 66.3149 TC 25 12.8680 66.2953 1 10 309
1974137N11069 1974 38 NI AS NOT_NAMED 1974-05-18 00:00:00 TS 13.2000 65.9000 main 877 877 O________OO___ jtwc_io IO021974 13.2000 65.9000 -1 13.2000 65.9000 TC 25 13.2000 65.9000 1 11 309
1974137N11069 1974 38 NI AS NOT_NAMED 1974-05-18 03:00:00 TS 13.5446 65.4653 main 902 902 P________PP___ IO021974 13.5499 65.4650 -1 13.5499 65.4650 TC 25 13.5339 65.4659 1 11 308
1974137N11069 1974 38 NI AS NOT_NAMED 1974-05-18 06:00:00 TS 13.8907 65.0008 main 937 893 O________OP___ jtwc_io IO021974 13.9000 65.0000 -1 13.9000 65.0000 TC 25 13.8722 65.0025 1 11 306
1974137N11069 1974 38 NI AS NOT_NAMED 1974-05-18 09:00:00 TS 14.2097 64.5142 main 893 830 P________PP___ IO021974 14.2149 64.5149 -1 14.2149 64.5149 TC 30 14.1994 64.5127 1 11 302
1974137N11069 1974 38 NI AS NOT_NAMED 1974-05-18 12:00:00 TS 14.5000 64.0000 main 830 767 O________OO___ jtwc_io IO021974 14.5000 64.0000 -1 14.5000 64.0000 TC 35 14.5000 64.0000 2 12 299
1974137N11069 1974 38 NI AS NOT_NAMED 1974-05-18 15:00:00 TS 14.7719 63.4648 main 767 703 P________PP___ IO021974 14.7649 63.4574 -1 14.7649 63.4574 TC 35 14.7859 63.4797 2 12 296
1974137N11069 1974 38 NI AS NOT_NAMED 1974-05-18 18:00:00 TS 15.0132 62.9126 main 703 647 O________OP___ jtwc_io IO021974 15.0000 62.9000 -1 15.0000 62.9000 TC 35 15.0395 62.9377 2 12 293
1974137N11069 1974 38 NI AS NOT_NAMED 1974-05-18 21:00:00 TS 15.2310 62.3639 main 647 585 P________PP___ IO021974 15.2223 62.3574 -1 15.2223 62.3574 TC 35 15.2483 62.3768 2 11 290
1974137N11069 1974 38 NI AS NOT_NAMED 1974-05-19 00:00:00 TS 15.4000 61.8000 main 585 532 O________OO___ jtwc_io IO021974 15.4000 61.8000 -1 15.4000 61.8000 TC 35 15.4000 61.8000 2 12 285
1974137N11069 1974 38 NI AS NOT_NAMED 1974-05-19 03:00:00 TS 15.5260 61.1961 main 532 482 P________PP___ IO021974 15.5374 61.2075 -1 15.5374 61.2075 TC 35 15.5032 61.1734 2 12 279
1974137N11069 1974 38 NI AS NOT_NAMED 1974-05-19 06:00:00 TS 15.5827 60.5799 main 482 446 O________OP___ jtwc_io IO021974 15.6000 60.6000 -1 15.6000 60.6000 TC 35 15.5481 60.5396 2 12 272
1974137N11069 1974 38 NI AS NOT_NAMED 1974-05-19 09:00:00 TS 15.5680 59.9536 main 446 416 P________PP___ IO021974 15.5801 59.9624 -1 15.5801 59.9624 TC 35 15.5439 59.9360 2 11 266
1974137N11069 1974 38 NI AS NOT_NAMED 1974-05-19 12:00:00 TS 15.5000 59.4000 main 416 393 O________OO___ jtwc_io IO021974 15.5000 59.4000 -1 15.5000 59.4000 TC 35 15.5000 59.4000 2 9 260
1974137N11069 1974 38 NI AS NOT_NAMED 1974-05-19 15:00:00 TS 15.4150 59.0091 main 393 379 P________PP___ IO021974 15.4072 59.0125 -1 15.4072 59.0125 TC 35 15.4307 59.0023 2 7 254
1974137N11069 1974 38 NI AS NOT_NAMED 1974-05-19 18:00:00 TS 15.3095 58.6900 main 380 367 O________OP___ jtwc_io IO021974 15.3000 58.7000 -1 15.3000 58.7000 TC 35 15.3284 58.6699 2 7 251
1974137N11069 1974 38 NI AS NOT_NAMED 1974-05-19 21:00:00 TS 15.1989 58.3658 main 369 356 P________PP___ IO021974 15.1923 58.3725 -1 15.1923 58.3725 TC 35 15.2120 58.3524 2 7 253
1974137N11069 1974 38 NI AS NOT_NAMED 1974-05-20 00:00:00 TS 15.1000 58.0000 main 356 338 O________OO___ jtwc_io IO021974 15.1000 58.0000 -1 15.1000 58.0000 TC 35 15.1000 58.0000 2 8 259
1974137N11069 1974 38 NI AS NOT_NAMED 1974-05-20 03:00:00 TS 15.0394 57.5240 main 340 305 P________PP___ IO021974 15.0500 57.5226 -1 15.0500 57.5226 TC 35 15.0181 57.5269 2 10 263
1974137N11069 1974 38 NI AS NOT_NAMED 1974-05-20 06:00:00 TS 14.9810 57.0050 main 305 284 O________OP___ jtwc_io IO021974 15.0000 57.0000 -1 15.0000 57.0000 TC 35 14.9430 57.0151 2 10 262
1974137N11069 1974 38 NI AS NOT_NAMED 1974-05-20 09:00:00 TS 14.8954 56.4885 main 284 267 P________PP___ IO021974 14.9075 56.4850 -1 14.9075 56.4850 TC 35 14.8712 56.4957 2 10 259
1974137N11069 1974 38 NI AS NOT_NAMED 1974-05-20 12:00:00 TS 14.8000 56.0000 main 267 258 O________OO___ jtwc_io IO021974 14.8000 56.0000 -1 14.8000 56.0000 TC 35 14.8000 56.0000 2 9 258
1974137N11069 1974 38 NI AS NOT_NAMED 1974-05-20 15:00:00 TS 14.7017 55.5832 main 260 236 P________PP___ IO021974 14.6923 55.5850 -1 14.6923 55.5850 TC 35 14.7204 55.5795 2 8 257
1974137N11069 1974 38 NI AS NOT_NAMED 1974-05-20 18:00:00 TS 14.6139 55.1950 main 236 226 O________OP___ jtwc_io IO021974 14.6000 55.2000 -1 14.6000 55.2000 TC 35 14.6417 55.1851 2 8 259
1974137N11069 1974 38 NI AS NOT_NAMED 1974-05-20 21:00:00 TS 14.5507 54.8044 main 226 212 P________PP___ IO021974 14.5424 54.8076 -1 14.5424 54.8076 TC 35 14.5673 54.7982 2 8 262
1974137N11069 1974 38 NI AS NOT_NAMED 1974-05-21 00:00:00 TS 14.5000 54.4000 main 212 212 O________OO___ jtwc_io IO021974 14.5000 54.4000 -1 14.5000 54.4000 TC 35 14.5000 54.4000 2 8 263
1974137N11069 1974 38 NI AS NOT_NAMED 1974-05-21 03:00:00 TS 14.4476 53.9558 main 201 193 P________PP___ IO021974 14.4500 53.9575 -1 14.4500 53.9575 TC 35 14.4428 53.9523 2 9 263
1974137N11069 1974 38 NI AS NOT_NAMED 1974-05-21 06:00:00 TS 14.3975 53.4975 main 193 165 O________OP___ jtwc_io IO021974 14.4000 53.5000 -1 14.4000 53.5000 TC 35 14.3926 53.4926 2 9 264
1974137N11069 1974 38 NI AS NOT_NAMED 1974-05-21 09:00:00 TS 14.3486 53.0406 main 169 149 P________PP___ IO021974 14.3500 53.0425 -1 14.3500 53.0425 TC 35 14.3460 53.0366 2 9 264
1974137N11069 1974 38 NI AS NOT_NAMED 1974-05-21 12:00:00 TS 14.3000 52.6000 main 149 129 O________OO___ jtwc_io IO021974 14.3000 52.6000 -1 14.3000 52.6000 TC 35 14.3000 52.6000 2 8 263
1974137N11069 1974 38 NI AS NOT_NAMED 1974-05-21 15:00:00 TS 14.2507 52.1881 main 129 119 P________PP___ IO021974 14.2499 52.1850 -1 14.2499 52.1850 TC 30 14.2522 52.1943 2 8 263
1974137N11069 1974 38 NI AS NOT_NAMED 1974-05-21 18:00:00 TS 14.2009 51.8050 main 119 112 O________OP___ jtwc_io IO021974 14.2000 51.8000 -1 14.2000 51.8000 TC 25 14.2027 51.8149 2 7 262
1974137N11069 1974 38 NI AS NOT_NAMED 1974-05-21 21:00:00 TS 14.1507 51.4460 main 111 111 P________PP___ IO021974 14.1501 51.4425 -1 14.1501 51.4425 TC 25 14.1518 51.4530 2 7 262
1974137N11069 1974 38 NI AS NOT_NAMED 1974-05-22 00:00:00 TS 14.1000 51.1000 main 114 O________OO___ jtwc_io IO021974 14.1000 51.1000 -1 14.1000 51.1000 TC 25 14.1000 51.1000 6 7 261

IBTrACS Databaseについて

本データベースは、米国NOAAが公開する1842年以降の世界の熱帯低気圧のベストトラックデータアーカイブInternational Best Track Archive for Climate Stewardship (IBTrACS)を、ウェブで閲覧しやすい形式に変換したものです。

最終更新日:2021-11-26